sensor_id;sensor_type;location;lat;lon;timestamp;temperature;humidity
49222;DHT22;35047;37.588;-122.048;2023-03-25T00:01:39;21.10;49.50
49222;DHT22;35047;37.588;-122.048;2023-03-25T00:04:05;21.10;49.90
49222;DHT22;35047;37.588;-122.048;2023-03-25T00:06:32;21.00;50.30
49222;DHT22;35047;37.588;-122.048;2023-03-25T00:09:02;21.10;50.90
49222;DHT22;35047;37.588;-122.048;2023-03-25T00:11:28;21.10;50.20
49222;DHT22;35047;37.588;-122.048;2023-03-25T00:13:55;21.20;51.50
49222;DHT22;35047;37.588;-122.048;2023-03-25T00:16:21;21.30;50.00
49222;DHT22;35047;37.588;-122.048;2023-03-25T00:18:48;21.20;50.50
49222;DHT22;35047;37.588;-122.048;2023-03-25T00:21:14;21.20;50.90
49222;DHT22;35047;37.588;-122.048;2023-03-25T00:23:41;21.20;51.50
49222;DHT22;35047;37.588;-122.048;2023-03-25T00:26:08;21.20;50.70
49222;DHT22;35047;37.588;-122.048;2023-03-25T00:28:36;21.20;50.90
49222;DHT22;35047;37.588;-122.048;2023-03-25T00:31:11;21.20;50.40
49222;DHT22;35047;37.588;-122.048;2023-03-25T00:33:38;21.10;50.90
49222;DHT22;35047;37.588;-122.048;2023-03-25T00:36:08;21.00;51.70
49222;DHT22;35047;37.588;-122.048;2023-03-25T00:38:36;21.10;52.00
49222;DHT22;35047;37.588;-122.048;2023-03-25T00:41:16;21.00;52.40
49222;DHT22;35047;37.588;-122.048;2023-03-25T00:43:44;20.70;52.80
49222;DHT22;35047;37.588;-122.048;2023-03-25T00:46:10;20.70;52.90
49222;DHT22;35047;37.588;-122.048;2023-03-25T00:48:37;20.70;53.70
49222;DHT22;35047;37.588;-122.048;2023-03-25T00:51:04;20.70;53.00
49222;DHT22;35047;37.588;-122.048;2023-03-25T00:53:36;20.70;53.20
49222;DHT22;35047;37.588;-122.048;2023-03-25T00:56:04;20.70;53.20
49222;DHT22;35047;37.588;-122.048;2023-03-25T00:58:31;20.80;53.10
49222;DHT22;35047;37.588;-122.048;2023-03-25T01:00:58;20.80;52.80
49222;DHT22;35047;37.588;-122.048;2023-03-25T01:03:27;20.80;52.60
49222;DHT22;35047;37.588;-122.048;2023-03-25T01:05:54;20.80;52.30
49222;DHT22;35047;37.588;-122.048;2023-03-25T01:08:23;20.80;52.20
49222;DHT22;35047;37.588;-122.048;2023-03-25T01:10:52;20.70;53.30
49222;DHT22;35047;37.588;-122.048;2023-03-25T01:13:19;20.50;53.30
49222;DHT22;35047;37.588;-122.048;2023-03-25T01:15:46;20.30;53.30
49222;DHT22;35047;37.588;-122.048;2023-03-25T01:18:12;20.40;54.20
49222;DHT22;35047;37.588;-122.048;2023-03-25T01:20:40;20.20;54.40
49222;DHT22;35047;37.588;-122.048;2023-03-25T01:23:06;20.10;54.80
49222;DHT22;35047;37.588;-122.048;2023-03-25T01:25:35;20.10;55.10
49222;DHT22;35047;37.588;-122.048;2023-03-25T01:28:02;20.10;55.30
49222;DHT22;35047;37.588;-122.048;2023-03-25T01:30:29;20.10;55.30
49222;DHT22;35047;37.588;-122.048;2023-03-25T01:32:55;20.10;55.30
49222;DHT22;35047;37.588;-122.048;2023-03-25T01:35:23;20.20;55.40
49222;DHT22;35047;37.588;-122.048;2023-03-25T01:37:49;20.20;55.20
49222;DHT22;35047;37.588;-122.048;2023-03-25T01:40:21;20.20;55.30
49222;DHT22;35047;37.588;-122.048;2023-03-25T01:42:48;20.20;54.90
49222;DHT22;35047;37.588;-122.048;2023-03-25T01:45:19;20.20;55.10
49222;DHT22;35047;37.588;-122.048;2023-03-25T01:47:50;20.10;55.70
49222;DHT22;35047;37.588;-122.048;2023-03-25T01:50:19;20.10;55.90
49222;DHT22;35047;37.588;-122.048;2023-03-25T01:52:49;19.90;56.00
49222;DHT22;35047;37.588;-122.048;2023-03-25T01:55:17;19.90;56.20
49222;DHT22;35047;37.588;-122.048;2023-03-25T01:57:46;19.90;56.10
49222;DHT22;35047;37.588;-122.048;2023-03-25T02:00:14;19.70;56.30
49222;DHT22;35047;37.588;-122.048;2023-03-25T02:02:41;19.50;56.60
49222;DHT22;35047;37.588;-122.048;2023-03-25T02:07:38;19.40;56.90
49222;DHT22;35047;37.588;-122.048;2023-03-25T02:10:10;19.50;56.70
49222;DHT22;35047;37.588;-122.048;2023-03-25T02:12:37;19.40;57.00
49222;DHT22;35047;37.588;-122.048;2023-03-25T02:15:05;19.40;57.60
49222;DHT22;35047;37.588;-122.048;2023-03-25T02:17:58;19.40;56.70
49222;DHT22;35047;37.588;-122.048;2023-03-25T02:20:58;19.30;56.40
49222;DHT22;35047;37.588;-122.048;2023-03-25T02:30:03;19.20;56.20
49222;DHT22;35047;37.588;-122.048;2023-03-25T02:33:26;19.10;56.40
49222;DHT22;35047;37.588;-122.048;2023-03-25T02:38:38;19.00;56.90
49222;DHT22;35047;37.588;-122.048;2023-03-25T02:41:22;18.90;57.10
49222;DHT22;35047;37.588;-122.048;2023-03-25T02:44:13;18.90;57.20
49222;DHT22;35047;37.588;-122.048;2023-03-25T02:46:47;18.90;57.00
49222;DHT22;35047;37.588;-122.048;2023-03-25T02:49:32;18.90;57.00
49222;DHT22;35047;37.588;-122.048;2023-03-25T02:52:12;19.00;57.00
49222;DHT22;35047;37.588;-122.048;2023-03-25T02:54:41;19.10;57.10
49222;DHT22;35047;37.588;-122.048;2023-03-25T02:57:13;19.30;57.00
49222;DHT22;35047;37.588;-122.048;2023-03-25T02:59:41;19.40;56.50
49222;DHT22;35047;37.588;-122.048;2023-03-25T03:02:09;19.40;56.20
49222;DHT22;35047;37.588;-122.048;2023-03-25T03:04:51;19.60;56.20
49222;DHT22;35047;37.588;-122.048;2023-03-25T03:07:38;19.80;55.30
49222;DHT22;35047;37.588;-122.048;2023-03-25T03:10:18;19.90;52.90
49222;DHT22;35047;37.588;-122.048;2023-03-25T03:16:01;19.90;51.70
49222;DHT22;35047;37.588;-122.048;2023-03-25T03:21:25;20.00;51.30
49222;DHT22;35047;37.588;-122.048;2023-03-25T03:24:06;20.00;50.90
49222;DHT22;35047;37.588;-122.048;2023-03-25T03:31:38;19.90;50.90
49222;DHT22;35047;37.588;-122.048;2023-03-25T03:34:12;19.90;50.60
49222;DHT22;35047;37.588;-122.048;2023-03-25T03:36:45;19.90;50.70
49222;DHT22;35047;37.588;-122.048;2023-03-25T03:39:34;19.90;50.40
49222;DHT22;35047;37.588;-122.048;2023-03-25T03:42:08;19.90;51.00
49222;DHT22;35047;37.588;-122.048;2023-03-25T03:44:39;20.00;51.90
49222;DHT22;35047;37.588;-122.048;2023-03-25T03:47:13;19.90;52.30
49222;DHT22;35047;37.588;-122.048;2023-03-25T03:49:46;19.90;51.80
49222;DHT22;35047;37.588;-122.048;2023-03-25T03:52:23;19.80;52.20
49222;DHT22;35047;37.588;-122.048;2023-03-25T03:54:55;19.70;52.20
49222;DHT22;35047;37.588;-122.048;2023-03-25T03:57:34;19.60;52.10
49222;DHT22;35047;37.588;-122.048;2023-03-25T04:05:08;19.20;51.70
49222;DHT22;35047;37.588;-122.048;2023-03-25T04:08:03;19.00;51.80
49222;DHT22;35047;37.588;-122.048;2023-03-25T04:10:38;18.90;51.60
49222;DHT22;35047;37.588;-122.048;2023-03-25T04:13:12;18.70;51.90
49222;DHT22;35047;37.588;-122.048;2023-03-25T04:15:41;18.50;52.70
49222;DHT22;35047;37.588;-122.048;2023-03-25T04:18:08;18.30;53.30
49222;DHT22;35047;37.588;-122.048;2023-03-25T04:20:34;18.30;53.80
49222;DHT22;35047;37.588;-122.048;2023-03-25T04:23:02;18.20;54.10
49222;DHT22;35047;37.588;-122.048;2023-03-25T04:25:34;18.10;54.00
49222;DHT22;35047;37.588;-122.048;2023-03-25T04:28:01;17.90;54.30
49222;DHT22;35047;37.588;-122.048;2023-03-25T04:30:28;17.90;54.50
49222;DHT22;35047;37.588;-122.048;2023-03-25T04:32:56;17.80;54.90
49222;DHT22;35047;37.588;-122.048;2023-03-25T04:35:25;17.70;54.90
49222;DHT22;35047;37.588;-122.048;2023-03-25T04:37:51;17.70;54.70
49222;DHT22;35047;37.588;-122.048;2023-03-25T04:40:19;17.70;54.70
49222;DHT22;35047;37.588;-122.048;2023-03-25T04:42:46;17.80;54.30
49222;DHT22;35047;37.588;-122.048;2023-03-25T04:45:14;17.80;53.60
49222;DHT22;35047;37.588;-122.048;2023-03-25T04:47:43;17.90;53.90
49222;DHT22;35047;37.588;-122.048;2023-03-25T04:50:23;18.10;53.20
49222;DHT22;35047;37.588;-122.048;2023-03-25T04:52:51;18.20;53.20
49222;DHT22;35047;37.588;-122.048;2023-03-25T04:55:19;18.30;52.20
49222;DHT22;35047;37.588;-122.048;2023-03-25T04:57:46;18.40;51.90
49222;DHT22;35047;37.588;-122.048;2023-03-25T05:00:14;18.50;52.00
49222;DHT22;35047;37.588;-122.048;2023-03-25T05:02:46;18.60;52.90
49222;DHT22;35047;37.588;-122.048;2023-03-25T05:05:15;18.70;52.30
49222;DHT22;35047;37.588;-122.048;2023-03-25T05:07:47;18.70;52.30
49222;DHT22;35047;37.588;-122.048;2023-03-25T05:10:19;18.80;51.60
49222;DHT22;35047;37.588;-122.048;2023-03-25T05:12:46;18.80;51.30
49222;DHT22;35047;37.588;-122.048;2023-03-25T05:15:15;18.80;50.80
49222;DHT22;35047;37.588;-122.048;2023-03-25T05:17:45;18.80;50.80
49222;DHT22;35047;37.588;-122.048;2023-03-25T05:20:12;18.70;51.20
49222;DHT22;35047;37.588;-122.048;2023-03-25T05:22:40;18.70;51.10
49222;DHT22;35047;37.588;-122.048;2023-03-25T05:25:08;18.60;51.20
49222;DHT22;35047;37.588;-122.048;2023-03-25T05:27:36;18.60;51.00
49222;DHT22;35047;37.588;-122.048;2023-03-25T05:30:04;18.50;51.20
49222;DHT22;35047;37.588;-122.048;2023-03-25T05:32:31;18.40;51.30
49222;DHT22;35047;37.588;-122.048;2023-03-25T05:35:01;18.40;51.50
49222;DHT22;35047;37.588;-122.048;2023-03-25T05:37:28;18.40;51.90
49222;DHT22;35047;37.588;-122.048;2023-03-25T05:39:55;18.40;51.80
49222;DHT22;35047;37.588;-122.048;2023-03-25T05:42:22;18.40;51.80
49222;DHT22;35047;37.588;-122.048;2023-03-25T05:44:49;18.50;52.10
49222;DHT22;35047;37.588;-122.048;2023-03-25T05:47:17;18.50;52.00
49222;DHT22;35047;37.588;-122.048;2023-03-25T05:49:45;18.60;52.10
49222;DHT22;35047;37.588;-122.048;2023-03-25T05:52:11;18.50;51.40
49222;DHT22;35047;37.588;-122.048;2023-03-25T05:54:38;18.50;51.50
49222;DHT22;35047;37.588;-122.048;2023-03-25T05:57:07;18.40;51.50
49222;DHT22;35047;37.588;-122.048;2023-03-25T05:59:34;18.30;51.90
49222;DHT22;35047;37.588;-122.048;2023-03-25T06:02:11;18.20;52.50
49222;DHT22;35047;37.588;-122.048;2023-03-25T06:04:38;18.20;51.80
49222;DHT22;35047;37.588;-122.048;2023-03-25T06:07:15;18.20;52.10
49222;DHT22;35047;37.588;-122.048;2023-03-25T06:09:45;18.30;52.70
49222;DHT22;35047;37.588;-122.048;2023-03-25T06:12:16;18.30;52.80
49222;DHT22;35047;37.588;-122.048;2023-03-25T06:14:48;18.40;52.60
49222;DHT22;35047;37.588;-122.048;2023-03-25T06:17:21;18.40;52.30
49222;DHT22;35047;37.588;-122.048;2023-03-25T06:19:48;18.40;52.30
49222;DHT22;35047;37.588;-122.048;2023-03-25T06:22:15;18.40;52.20
49222;DHT22;35047;37.588;-122.048;2023-03-25T06:24:42;18.40;52.00
49222;DHT22;35047;37.588;-122.048;2023-03-25T06:27:12;18.40;51.70
49222;DHT22;35047;37.588;-122.048;2023-03-25T06:29:39;18.40;51.60
49222;DHT22;35047;37.588;-122.048;2023-03-25T06:32:11;18.30;51.70
49222;DHT22;35047;37.588;-122.048;2023-03-25T06:34:38;18.30;51.70
49222;DHT22;35047;37.588;-122.048;2023-03-25T06:37:08;18.40;51.60
49222;DHT22;35047;37.588;-122.048;2023-03-25T06:39:34;18.40;51.90
49222;DHT22;35047;37.588;-122.048;2023-03-25T06:42:03;18.40;52.00
49222;DHT22;35047;37.588;-122.048;2023-03-25T06:44:30;18.40;51.60
49222;DHT22;35047;37.588;-122.048;2023-03-25T06:46:57;18.40;51.30
49222;DHT22;35047;37.588;-122.048;2023-03-25T06:49:25;18.40;51.20
49222;DHT22;35047;37.588;-122.048;2023-03-25T06:51:51;18.40;51.20
49222;DHT22;35047;37.588;-122.048;2023-03-25T06:54:18;18.40;50.70
49222;DHT22;35047;37.588;-122.048;2023-03-25T06:56:44;18.30;50.70
49222;DHT22;35047;37.588;-122.048;2023-03-25T06:59:11;18.30;50.70
49222;DHT22;35047;37.588;-122.048;2023-03-25T07:01:37;18.30;50.50
49222;DHT22;35047;37.588;-122.048;2023-03-25T07:04:04;18.20;50.60
49222;DHT22;35047;37.588;-122.048;2023-03-25T07:06:31;18.20;50.80
49222;DHT22;35047;37.588;-122.048;2023-03-25T07:08:57;18.20;51.10
49222;DHT22;35047;37.588;-122.048;2023-03-25T07:11:27;18.20;50.70
49222;DHT22;35047;37.588;-122.048;2023-03-25T07:13:54;18.20;50.40
49222;DHT22;35047;37.588;-122.048;2023-03-25T07:16:22;18.20;50.50
49222;DHT22;35047;37.588;-122.048;2023-03-25T07:18:49;18.20;50.40
49222;DHT22;35047;37.588;-122.048;2023-03-25T07:21:17;18.20;50.50
49222;DHT22;35047;37.588;-122.048;2023-03-25T07:23:44;18.20;50.40
49222;DHT22;35047;37.588;-122.048;2023-03-25T07:26:10;18.10;51.00
49222;DHT22;35047;37.588;-122.048;2023-03-25T07:28:38;18.00;50.80
49222;DHT22;35047;37.588;-122.048;2023-03-25T07:31:10;18.00;51.30
49222;DHT22;35047;37.588;-122.048;2023-03-25T07:33:37;18.00;51.20
49222;DHT22;35047;37.588;-122.048;2023-03-25T07:36:04;18.00;51.60
49222;DHT22;35047;37.588;-122.048;2023-03-25T07:38:32;18.00;51.80
49222;DHT22;35047;37.588;-122.048;2023-03-25T07:40:58;18.00;52.30
49222;DHT22;35047;37.588;-122.048;2023-03-25T07:43:25;18.00;52.30
49222;DHT22;35047;37.588;-122.048;2023-03-25T07:45:53;18.00;52.40
49222;DHT22;35047;37.588;-122.048;2023-03-25T07:48:19;18.00;52.40
49222;DHT22;35047;37.588;-122.048;2023-03-25T07:50:50;18.10;52.70
49222;DHT22;35047;37.588;-122.048;2023-03-25T07:53:17;18.10;52.60
49222;DHT22;35047;37.588;-122.048;2023-03-25T07:55:44;18.10;52.60
49222;DHT22;35047;37.588;-122.048;2023-03-25T07:58:11;18.20;52.80
49222;DHT22;35047;37.588;-122.048;2023-03-25T08:00:38;18.20;52.90
49222;DHT22;35047;37.588;-122.048;2023-03-25T08:03:04;18.20;52.60
49222;DHT22;35047;37.588;-122.048;2023-03-25T08:05:31;18.20;52.40
49222;DHT22;35047;37.588;-122.048;2023-03-25T08:07:57;18.20;52.50
49222;DHT22;35047;37.588;-122.048;2023-03-25T08:10:27;18.20;52.90
49222;DHT22;35047;37.588;-122.048;2023-03-25T08:12:53;18.10;52.90
49222;DHT22;35047;37.588;-122.048;2023-03-25T08:15:21;18.10;52.90
49222;DHT22;35047;37.588;-122.048;2023-03-25T08:17:50;18.10;52.70
49222;DHT22;35047;37.588;-122.048;2023-03-25T08:20:19;18.00;53.10
49222;DHT22;35047;37.588;-122.048;2023-03-25T08:22:46;18.00;53.40
49222;DHT22;35047;37.588;-122.048;2023-03-25T08:25:13;18.00;53.30
49222;DHT22;35047;37.588;-122.048;2023-03-25T08:27:40;18.00;53.40
49222;DHT22;35047;37.588;-122.048;2023-03-25T08:30:07;17.90;53.30
49222;DHT22;35047;37.588;-122.048;2023-03-25T08:32:36;17.90;53.60
49222;DHT22;35047;37.588;-122.048;2023-03-25T08:35:04;17.80;53.90
49222;DHT22;35047;37.588;-122.048;2023-03-25T08:37:31;17.80;54.10
49222;DHT22;35047;37.588;-122.048;2023-03-25T08:40:04;17.70;54.20
49222;DHT22;35047;37.588;-122.048;2023-03-25T08:42:37;17.60;54.30
49222;DHT22;35047;37.588;-122.048;2023-03-25T08:45:04;17.60;54.50
49222;DHT22;35047;37.588;-122.048;2023-03-25T08:47:31;17.60;54.70
49222;DHT22;35047;37.588;-122.048;2023-03-25T08:49:58;17.50;55.20
49222;DHT22;35047;37.588;-122.048;2023-03-25T08:52:24;17.50;55.10
49222;DHT22;35047;37.588;-122.048;2023-03-25T08:54:51;17.50;55.00
49222;DHT22;35047;37.588;-122.048;2023-03-25T08:57:17;17.40;55.10
49222;DHT22;35047;37.588;-122.048;2023-03-25T08:59:44;17.40;55.20
49222;DHT22;35047;37.588;-122.048;2023-03-25T09:02:11;17.30;55.30
49222;DHT22;35047;37.588;-122.048;2023-03-25T09:04:38;17.30;55.50
49222;DHT22;35047;37.588;-122.048;2023-03-25T09:07:05;17.20;55.50
49222;DHT22;35047;37.588;-122.048;2023-03-25T09:09:36;17.20;55.60
49222;DHT22;35047;37.588;-122.048;2023-03-25T09:12:04;17.20;55.40
49222;DHT22;35047;37.588;-122.048;2023-03-25T09:14:31;17.10;55.60
49222;DHT22;35047;37.588;-122.048;2023-03-25T09:16:58;17.00;55.70
49222;DHT22;35047;37.588;-122.048;2023-03-25T09:19:24;17.00;55.80
49222;DHT22;35047;37.588;-122.048;2023-03-25T09:21:51;17.00;55.80
49222;DHT22;35047;37.588;-122.048;2023-03-25T09:24:17;16.90;56.20
49222;DHT22;35047;37.588;-122.048;2023-03-25T09:26:44;16.90;56.40
49222;DHT22;35047;37.588;-122.048;2023-03-25T09:29:10;16.80;56.30
49222;DHT22;35047;37.588;-122.048;2023-03-25T09:31:37;16.80;56.20
49222;DHT22;35047;37.588;-122.048;2023-03-25T09:34:03;16.80;56.50
49222;DHT22;35047;37.588;-122.048;2023-03-25T09:36:31;16.80;56.50
49222;DHT22;35047;37.588;-122.048;2023-03-25T09:38:57;16.80;56.10
49222;DHT22;35047;37.588;-122.048;2023-03-25T09:46:26;16.60;56.60
49222;DHT22;35047;37.588;-122.048;2023-03-25T09:48:53;16.60;57.30
49222;DHT22;35047;37.588;-122.048;2023-03-25T09:51:29;16.60;56.90
49222;DHT22;35047;37.588;-122.048;2023-03-25T09:56:43;16.60;57.00
49222;DHT22;35047;37.588;-122.048;2023-03-25T09:59:14;16.60;57.30
49222;DHT22;35047;37.588;-122.048;2023-03-25T10:01:47;16.60;57.00
49222;DHT22;35047;37.588;-122.048;2023-03-25T10:04:29;16.50;56.30
49222;DHT22;35047;37.588;-122.048;2023-03-25T10:07:22;16.50;56.50
49222;DHT22;35047;37.588;-122.048;2023-03-25T10:10:17;16.40;56.60
49222;DHT22;35047;37.588;-122.048;2023-03-25T10:23:59;16.20;57.30
49222;DHT22;35047;37.588;-122.048;2023-03-25T10:26:30;16.20;57.30
49222;DHT22;35047;37.588;-122.048;2023-03-25T10:29:16;16.10;57.30
49222;DHT22;35047;37.588;-122.048;2023-03-25T10:31:52;16.00;57.40
49222;DHT22;35047;37.588;-122.048;2023-03-25T10:34:29;16.00;57.60
49222;DHT22;35047;37.588;-122.048;2023-03-25T10:37:02;15.90;57.80
49222;DHT22;35047;37.588;-122.048;2023-03-25T10:39:31;15.90;57.70
49222;DHT22;35047;37.588;-122.048;2023-03-25T10:42:30;15.90;57.70
49222;DHT22;35047;37.588;-122.048;2023-03-25T10:44:59;15.90;57.90
49222;DHT22;35047;37.588;-122.048;2023-03-25T10:47:30;15.90;57.80
49222;DHT22;35047;37.588;-122.048;2023-03-25T10:49:59;15.80;57.90
49222;DHT22;35047;37.588;-122.048;2023-03-25T10:52:26;15.80;57.90
49222;DHT22;35047;37.588;-122.048;2023-03-25T10:54:54;15.80;57.90
49222;DHT22;35047;37.588;-122.048;2023-03-25T10:57:27;15.80;57.80
49222;DHT22;35047;37.588;-122.048;2023-03-25T11:02:27;15.70;57.90
49222;DHT22;35047;37.588;-122.048;2023-03-25T11:05:03;15.70;57.80
49222;DHT22;35047;37.588;-122.048;2023-03-25T11:07:39;15.70;57.70
49222;DHT22;35047;37.588;-122.048;2023-03-25T11:10:25;15.60;57.70
49222;DHT22;35047;37.588;-122.048;2023-03-25T11:12:54;15.50;58.10
49222;DHT22;35047;37.588;-122.048;2023-03-25T11:15:34;15.50;58.00
49222;DHT22;35047;37.588;-122.048;2023-03-25T11:21:08;15.40;58.50
49222;DHT22;35047;37.588;-122.048;2023-03-25T11:23:46;15.40;58.60
49222;DHT22;35047;37.588;-122.048;2023-03-25T11:26:20;15.40;58.50
49222;DHT22;35047;37.588;-122.048;2023-03-25T11:29:11;15.30;58.50
49222;DHT22;35047;37.588;-122.048;2023-03-25T11:31:37;15.30;58.60
49222;DHT22;35047;37.588;-122.048;2023-03-25T11:36:38;15.20;58.60
49222;DHT22;35047;37.588;-122.048;2023-03-25T11:39:35;15.20;58.60
49222;DHT22;35047;37.588;-122.048;2023-03-25T11:42:34;15.20;58.40
49222;DHT22;35047;37.588;-122.048;2023-03-25T11:45:05;15.10;58.60
49222;DHT22;35047;37.588;-122.048;2023-03-25T11:47:34;15.10;58.90
49222;DHT22;35047;37.588;-122.048;2023-03-25T11:50:01;15.10;58.70
49222;DHT22;35047;37.588;-122.048;2023-03-25T11:52:43;15.10;58.70
49222;DHT22;35047;37.588;-122.048;2023-03-25T11:57:50;15.00;59.00
49222;DHT22;35047;37.588;-122.048;2023-03-25T12:00:37;15.00;59.10
49222;DHT22;35047;37.588;-122.048;2023-03-25T12:05:37;15.00;59.30
49222;DHT22;35047;37.588;-122.048;2023-03-25T12:08:14;14.90;59.10
49222;DHT22;35047;37.588;-122.048;2023-03-25T12:10:53;14.90;59.20
49222;DHT22;35047;37.588;-122.048;2023-03-25T12:44:06;14.50;59.50
49222;DHT22;35047;37.588;-122.048;2023-03-25T12:46:50;14.50;59.30
49222;DHT22;35047;37.588;-122.048;2023-03-25T12:49:59;14.50;59.20
49222;DHT22;35047;37.588;-122.048;2023-03-25T13:04:23;14.30;60.00
49222;DHT22;35047;37.588;-122.048;2023-03-25T13:07:04;14.30;60.10
49222;DHT22;35047;37.588;-122.048;2023-03-25T13:12:53;14.30;59.60
49222;DHT22;35047;37.588;-122.048;2023-03-25T13:18:14;14.20;59.60
49222;DHT22;35047;37.588;-122.048;2023-03-25T13:21:04;14.20;60.10
49222;DHT22;35047;37.588;-122.048;2023-03-25T13:23:34;14.20;59.90
49222;DHT22;35047;37.588;-122.048;2023-03-25T13:26:22;14.10;59.70
49222;DHT22;35047;37.588;-122.048;2023-03-25T13:28:54;14.10;59.40
49222;DHT22;35047;37.588;-122.048;2023-03-25T13:31:27;14.10;59.80
49222;DHT22;35047;37.588;-122.048;2023-03-25T13:36:49;14.10;59.70
49222;DHT22;35047;37.588;-122.048;2023-03-25T13:39:25;14.00;60.10
49222;DHT22;35047;37.588;-122.048;2023-03-25T13:42:11;14.00;60.20
49222;DHT22;35047;37.588;-122.048;2023-03-25T13:44:42;14.00;60.10
49222;DHT22;35047;37.588;-122.048;2023-03-25T13:47:46;14.00;60.40
49222;DHT22;35047;37.588;-122.048;2023-03-25T13:50:07;14.00;60.10
49222;DHT22;35047;37.588;-122.048;2023-03-25T13:52:41;13.90;60.10
49222;DHT22;35047;37.588;-122.048;2023-03-25T13:55:13;13.90;60.10
49222;DHT22;35047;37.588;-122.048;2023-03-25T13:58:56;13.90;60.40
49222;DHT22;35047;37.588;-122.048;2023-03-25T14:01:03;13.90;60.60
49222;DHT22;35047;37.588;-122.048;2023-03-25T14:06:38;13.80;60.50
49222;DHT22;35047;37.588;-122.048;2023-03-25T14:12:13;13.80;60.80
49222;DHT22;35047;37.588;-122.048;2023-03-25T14:14:50;13.80;61.10
49222;DHT22;35047;37.588;-122.048;2023-03-25T14:17:20;13.80;61.00
49222;DHT22;35047;37.588;-122.048;2023-03-25T14:19:52;13.80;61.20
49222;DHT22;35047;37.588;-122.048;2023-03-25T14:22:30;13.80;61.40
49222;DHT22;35047;37.588;-122.048;2023-03-25T14:25:01;13.80;61.60
49222;DHT22;35047;37.588;-122.048;2023-03-25T14:27:34;13.80;61.40
49222;DHT22;35047;37.588;-122.048;2023-03-25T14:30:03;13.80;61.30
49222;DHT22;35047;37.588;-122.048;2023-03-25T14:32:39;13.80;61.80
49222;DHT22;35047;37.588;-122.048;2023-03-25T14:46:15;13.90;61.50
49222;DHT22;35047;37.588;-122.048;2023-03-25T14:49:08;14.00;61.50
49222;DHT22;35047;37.588;-122.048;2023-03-25T14:59:47;14.10;62.10
49222;DHT22;35047;37.588;-122.048;2023-03-25T15:02:29;14.10;62.30
49222;DHT22;35047;37.588;-122.048;2023-03-25T15:10:42;14.40;62.30
49222;DHT22;35047;37.588;-122.048;2023-03-25T15:13:31;14.50;62.60
49222;DHT22;35047;37.588;-122.048;2023-03-25T15:16:37;14.60;62.70
49222;DHT22;35047;37.588;-122.048;2023-03-25T15:19:02;14.70;63.00
49222;DHT22;35047;37.588;-122.048;2023-03-25T15:24:35;14.80;62.10
49222;DHT22;35047;37.588;-122.048;2023-03-25T15:32:55;15.00;60.10
49222;DHT22;35047;37.588;-122.048;2023-03-25T15:35:41;15.10;60.00
49222;DHT22;35047;37.588;-122.048;2023-03-25T15:41:33;15.30;59.30
49222;DHT22;35047;37.588;-122.048;2023-03-25T15:44:24;15.40;58.20
49222;DHT22;35047;37.588;-122.048;2023-03-25T15:56:01;15.70;56.50
49222;DHT22;35047;37.588;-122.048;2023-03-25T16:00:50;15.80;56.30
49222;DHT22;35047;37.588;-122.048;2023-03-25T16:03:24;16.00;56.60
49222;DHT22;35047;37.588;-122.048;2023-03-25T16:05:58;16.00;55.30
49222;DHT22;35047;37.588;-122.048;2023-03-25T16:08:37;16.10;55.40
49222;DHT22;35047;37.588;-122.048;2023-03-25T16:13:49;16.30;55.50
49222;DHT22;35047;37.588;-122.048;2023-03-25T16:16:26;16.30;55.20
49222;DHT22;35047;37.588;-122.048;2023-03-25T16:18:54;16.40;54.40
49222;DHT22;35047;37.588;-122.048;2023-03-25T16:21:21;16.50;54.50
49222;DHT22;35047;37.588;-122.048;2023-03-25T16:23:52;16.60;54.00
49222;DHT22;35047;37.588;-122.048;2023-03-25T16:26:37;16.60;53.50
49222;DHT22;35047;37.588;-122.048;2023-03-25T16:29:19;16.60;53.20
49222;DHT22;35047;37.588;-122.048;2023-03-25T16:31:56;16.60;53.30
49222;DHT22;35047;37.588;-122.048;2023-03-25T16:34:25;16.70;53.10
49222;DHT22;35047;37.588;-122.048;2023-03-25T16:36:53;16.70;52.70
49222;DHT22;35047;37.588;-122.048;2023-03-25T16:39:22;16.70;53.40
49222;DHT22;35047;37.588;-122.048;2023-03-25T16:44:45;17.00;52.70
49222;DHT22;35047;37.588;-122.048;2023-03-25T16:47:13;17.20;52.30
49222;DHT22;35047;37.588;-122.048;2023-03-25T16:49:43;17.30;51.50
49222;DHT22;35047;37.588;-122.048;2023-03-25T16:52:15;17.40;51.50
49222;DHT22;35047;37.588;-122.048;2023-03-25T16:57:37;17.60;51.00
49222;DHT22;35047;37.588;-122.048;2023-03-25T17:00:17;17.80;50.90
49222;DHT22;35047;37.588;-122.048;2023-03-25T17:02:46;17.80;49.80
49222;DHT22;35047;37.588;-122.048;2023-03-25T17:08:09;18.30;51.40
49222;DHT22;35047;37.588;-122.048;2023-03-25T17:10:50;18.50;49.40
49222;DHT22;35047;37.588;-122.048;2023-03-25T17:13:46;18.60;49.90
49222;DHT22;35047;37.588;-122.048;2023-03-25T17:16:20;18.90;50.10
49222;DHT22;35047;37.588;-122.048;2023-03-25T17:18:48;19.20;47.80
49222;DHT22;35047;37.588;-122.048;2023-03-25T17:21:28;19.40;47.40
49222;DHT22;35047;37.588;-122.048;2023-03-25T17:23:59;19.60;47.10
49222;DHT22;35047;37.588;-122.048;2023-03-25T17:26:32;19.70;46.90
49222;DHT22;35047;37.588;-122.048;2023-03-25T17:29:02;20.00;46.80
49222;DHT22;35047;37.588;-122.048;2023-03-25T17:31:38;20.10;46.90
49222;DHT22;35047;37.588;-122.048;2023-03-25T17:34:21;20.30;46.20
49222;DHT22;35047;37.588;-122.048;2023-03-25T17:36:55;20.60;45.10
49222;DHT22;35047;37.588;-122.048;2023-03-25T17:39:23;20.80;45.30
49222;DHT22;35047;37.588;-122.048;2023-03-25T17:42:03;21.00;45.60
49222;DHT22;35047;37.588;-122.048;2023-03-25T17:44:35;21.20;45.50
49222;DHT22;35047;37.588;-122.048;2023-03-25T17:47:06;21.40;43.00
49222;DHT22;35047;37.588;-122.048;2023-03-25T17:49:33;21.50;44.00
49222;DHT22;35047;37.588;-122.048;2023-03-25T17:52:00;21.50;44.50
49222;DHT22;35047;37.588;-122.048;2023-03-25T17:54:27;21.50;45.00
49222;DHT22;35047;37.588;-122.048;2023-03-25T17:56:54;21.80;43.40
49222;DHT22;35047;37.588;-122.048;2023-03-25T17:59:22;21.90;44.40
49222;DHT22;35047;37.588;-122.048;2023-03-25T18:01:50;22.00;44.20
49222;DHT22;35047;37.588;-122.048;2023-03-25T18:04:17;22.30;44.20
49222;DHT22;35047;37.588;-122.048;2023-03-25T18:06:46;22.40;41.30
49222;DHT22;35047;37.588;-122.048;2023-03-25T18:09:23;22.60;43.50
49222;DHT22;35047;37.588;-122.048;2023-03-25T18:11:53;22.70;43.20
49222;DHT22;35047;37.588;-122.048;2023-03-25T18:14:22;22.80;41.10